createdAt,value
2022-09-11T00:09:29.741Z,15.70
2022-09-11T00:12:36.661Z,15.70
2022-09-11T00:15:43.130Z,15.70
2022-09-11T00:18:45.864Z,15.70
2022-09-11T00:25:16.644Z,15.70
2022-09-11T00:28:18.536Z,15.70
2022-09-11T00:31:26.979Z,15.70
2022-09-11T00:34:51.487Z,15.70
2022-09-11T00:38:02.605Z,15.70
2022-09-11T00:41:16.264Z,15.60
2022-09-11T00:44:19.181Z,15.60
2022-09-11T00:47:28.693Z,15.60
2022-09-11T00:50:26.990Z,15.70
2022-09-11T00:53:42.501Z,15.60
2022-09-11T00:56:51.691Z,15.60
2022-09-11T00:59:46.788Z,15.60
2022-09-11T01:02:55.273Z,15.60
2022-09-11T01:05:58.920Z,15.60
2022-09-11T01:09:03.556Z,15.60
2022-09-11T01:12:38.417Z,15.60
2022-09-11T01:16:19.726Z,15.60
2022-09-11T01:19:55.497Z,15.60
2022-09-11T01:23:09.360Z,15.60
2022-09-11T01:26:47.023Z,15.60
2022-09-11T01:30:11.920Z,15.60
2022-09-11T01:33:56.207Z,15.60
2022-09-11T01:37:10.116Z,15.60
2022-09-11T01:40:22.655Z,15.60
2022-09-11T01:43:57.618Z,15.60
2022-09-11T01:47:26.391Z,15.60
2022-09-11T01:50:26.901Z,15.60
2022-09-11T01:53:32.378Z,15.60
2022-09-11T01:56:50.372Z,15.60
2022-09-11T01:59:50.316Z,15.60
2022-09-11T02:02:52.395Z,15.60
2022-09-11T02:06:07.160Z,15.60
2022-09-11T02:09:06.618Z,15.60
2022-09-11T02:12:19.405Z,15.60
2022-09-11T02:15:44.670Z,15.60
2022-09-11T02:18:58.335Z,15.70
2022-09-11T02:22:11.325Z,15.70
2022-09-11T02:25:29.140Z,15.70
2022-09-11T02:29:31.654Z,15.70
2022-09-11T02:32:20.694Z,15.60
2022-09-11T02:35:35.617Z,15.60
2022-09-11T02:39:12.847Z,15.60
2022-09-11T02:42:35.318Z,15.70
2022-09-11T02:46:00.737Z,15.60
2022-09-11T02:49:06.753Z,15.60
2022-09-11T02:52:18.478Z,15.60
2022-09-11T02:55:38.997Z,15.60
2022-09-11T02:58:46.708Z,15.60
2022-09-11T03:02:08.987Z,15.60
2022-09-11T03:05:11.644Z,15.60
2022-09-11T03:08:10.777Z,15.60
2022-09-11T03:11:41.994Z,15.60
2022-09-11T03:14:51.886Z,15.60
2022-09-11T03:17:54.698Z,15.50
2022-09-11T03:21:18.062Z,15.50
2022-09-11T03:24:17.589Z,15.50
2022-09-11T03:30:23.717Z,15.50
2022-09-11T03:33:33.719Z,15.50
2022-09-11T03:36:43.374Z,15.60
2022-09-11T03:39:55.011Z,15.50
2022-09-11T03:43:15.519Z,15.50
2022-09-11T03:46:46.522Z,15.50
2022-09-11T03:50:04.574Z,15.50
2022-09-11T03:53:18.163Z,15.50
2022-09-11T03:56:44.177Z,15.50
2022-09-11T04:00:04.724Z,15.50
2022-09-11T04:03:00.422Z,15.50
2022-09-11T04:06:38.321Z,15.50
2022-09-11T04:10:06.761Z,15.50
2022-09-11T04:13:09.652Z,15.50
2022-09-11T04:16:28.838Z,15.50
2022-09-11T04:19:41.331Z,15.50
2022-09-11T04:22:48.872Z,15.50
2022-09-11T04:29:21.376Z,15.50
2022-09-11T04:32:23.841Z,15.50
2022-09-11T04:35:39.603Z,15.50
2022-09-11T04:38:49.741Z,15.50
2022-09-11T04:42:12.038Z,15.50
2022-09-11T04:45:20.249Z,15.50
2022-09-11T04:48:18.918Z,15.50
2022-09-11T04:51:34.088Z,15.50
2022-09-11T04:57:48.309Z,15.50
2022-09-11T05:01:05.393Z,15.40
2022-09-11T05:04:10.233Z,15.40
2022-09-11T05:07:19.257Z,15.40
2022-09-11T05:10:27.547Z,15.40
2022-09-11T05:16:58.305Z,15.40
2022-09-11T05:19:59.936Z,15.40
2022-09-11T05:26:45.077Z,15.40
2022-09-11T05:29:55.341Z,15.40
2022-09-11T05:33:10.780Z,15.40
2022-09-11T05:36:32.915Z,15.40
2022-09-11T05:39:35.152Z,15.40
2022-09-11T05:42:25.048Z,15.40
2022-09-11T05:45:54.204Z,15.40
2022-09-11T05:52:58.938Z,15.50
2022-09-11T05:56:03.034Z,15.50
2022-09-11T05:59:04.478Z,15.50
2022-09-11T06:01:53.861Z,15.50
2022-09-11T06:04:45.700Z,15.50
2022-09-11T06:07:38.092Z,15.60
2022-09-11T06:10:36.560Z,15.50
2022-09-11T06:13:28.348Z,15.60
2022-09-11T06:16:19.576Z,15.60
2022-09-11T06:19:07.895Z,15.60
2022-09-11T06:21:58.545Z,15.60
2022-09-11T06:24:47.007Z,15.70
2022-09-11T06:27:38.168Z,15.70
2022-09-11T06:30:36.738Z,15.70
2022-09-11T06:33:25.275Z,15.80
2022-09-11T06:36:15.847Z,15.80
2022-09-11T06:39:07.125Z,15.90
2022-09-11T06:41:55.266Z,15.90
2022-09-11T06:44:45.704Z,15.90
2022-09-11T06:47:38.165Z,15.90
2022-09-11T06:50:26.401Z,15.90
2022-09-11T06:53:15.461Z,16.00
2022-09-11T06:56:06.827Z,16.00
2022-09-11T06:58:55.158Z,16.00
2022-09-11T07:01:44.432Z,16.00
2022-09-11T07:04:32.662Z,16.00
2022-09-11T07:07:20.789Z,16.00
2022-09-11T07:10:11.008Z,16.00
2022-09-11T07:13:00.518Z,16.00
2022-09-11T07:15:49.186Z,16.00
2022-09-11T07:18:40.927Z,16.00
2022-09-11T07:21:31.187Z,16.10
2022-09-11T07:24:21.623Z,16.10
2022-09-11T07:27:10.273Z,16.10
2022-09-11T07:29:59.724Z,16.10
2022-09-11T07:32:50.852Z,16.20
2022-09-11T07:35:38.995Z,16.20
2022-09-11T07:38:29.841Z,16.30
2022-09-11T07:41:19.693Z,16.30
2022-09-11T07:44:09.049Z,16.40
2022-09-11T07:46:58.537Z,16.40
2022-09-11T07:49:48.038Z,16.40
2022-09-11T07:52:36.652Z,16.40
2022-09-11T07:55:26.470Z,16.40
2022-09-11T07:58:14.606Z,16.40
2022-09-11T08:01:03.546Z,16.40
2022-09-11T08:03:58.280Z,16.40
2022-09-11T08:06:47.046Z,16.40
2022-09-11T08:09:36.384Z,16.40
2022-09-11T08:12:24.511Z,16.40
2022-09-11T08:15:12.883Z,16.40
2022-09-11T08:18:00.988Z,16.40
2022-09-11T08:21:01.400Z,16.50
2022-09-11T08:23:50.000Z,16.40
2022-09-11T08:26:38.393Z,16.50
2022-09-11T08:29:26.581Z,16.50
2022-09-11T08:32:14.822Z,16.50
2022-09-11T08:35:06.602Z,16.60
2022-09-11T08:37:56.183Z,16.70
2022-09-11T08:40:49.801Z,16.70
2022-09-11T08:43:45.585Z,16.70
2022-09-11T08:46:39.844Z,16.80
2022-09-11T08:49:31.334Z,16.70
2022-09-11T08:52:21.639Z,16.80
2022-09-11T08:55:15.886Z,16.80
2022-09-11T08:58:12.240Z,16.90
2022-09-11T09:01:11.741Z,16.90
2022-09-11T09:04:21.198Z,17.00
2022-09-11T09:07:19.945Z,17.10
2022-09-11T09:10:20.173Z,17.20
2022-09-11T09:13:19.629Z,17.10
2022-09-11T09:16:22.524Z,17.20
2022-09-11T09:19:15.625Z,17.20
2022-09-11T09:22:11.261Z,17.20
2022-09-11T09:25:04.541Z,17.30
2022-09-11T09:28:00.122Z,17.40
2022-09-11T13:00:02.801Z,20.40
2022-09-11T13:02:55.385Z,21.90
2022-09-11T13:05:45.338Z,21.80
2022-09-11T13:08:37.572Z,21.70
2022-09-11T13:11:48.012Z,21.60
2022-09-11T13:14:50.264Z,21.50
2022-09-11T13:17:48.060Z,21.40
2022-09-11T13:20:38.954Z,21.40
2022-09-11T13:23:27.454Z,21.90
2022-09-11T13:26:24.626Z,22.60
2022-09-11T13:29:15.172Z,23.40
2022-09-11T13:32:11.382Z,24.10
2022-09-11T13:35:11.078Z,24.90
2022-09-11T13:38:03.252Z,25.40
2022-09-11T13:40:56.793Z,25.40
2022-09-11T13:43:47.101Z,25.70
2022-09-11T13:46:50.580Z,26.10
2022-09-11T13:49:41.972Z,26.30
2022-09-11T13:52:33.937Z,25.80
2022-09-11T13:55:26.807Z,25.40
2022-09-11T13:58:25.997Z,24.90
2022-09-11T14:01:14.930Z,24.40
2022-09-11T14:04:05.783Z,24.10
2022-09-11T14:06:54.277Z,23.70
2022-09-11T14:09:42.480Z,23.50
2022-09-11T14:12:32.052Z,23.20
2022-09-11T14:15:25.459Z,23.10
2022-09-11T14:18:20.675Z,22.90
2022-09-11T14:21:16.781Z,22.80
2022-09-11T14:24:18.777Z,22.70
2022-09-11T14:27:44.420Z,22.60
2022-09-11T14:30:37.506Z,22.60
2022-09-11T14:33:26.388Z,22.50
2022-09-11T14:36:19.957Z,22.40
2022-09-11T14:39:14.494Z,22.50
2022-09-11T14:42:03.167Z,22.60
2022-09-11T14:44:53.296Z,22.60
2022-09-11T14:47:41.520Z,22.70
2022-09-11T14:50:30.885Z,22.80
2022-09-11T14:53:29.055Z,22.90
2022-09-11T14:56:17.166Z,23.10
2022-09-11T14:59:05.241Z,23.20
2022-09-11T15:01:54.756Z,23.20
2022-09-11T15:04:42.894Z,23.40
2022-09-11T15:07:31.019Z,23.50
2022-09-11T15:10:23.675Z,23.50
2022-09-11T15:13:11.809Z,23.30
2022-09-11T15:16:00.224Z,23.10
2022-09-11T15:18:49.709Z,23.00
2022-09-11T15:21:38.706Z,22.90
2022-09-11T15:24:27.317Z,22.80
2022-09-11T15:27:15.511Z,22.70
2022-09-11T15:30:04.896Z,22.70
2022-09-11T15:32:53.100Z,22.60
2022-09-11T15:35:43.174Z,22.50
2022-09-11T15:38:32.035Z,22.40
2022-09-11T15:41:21.885Z,22.40
2022-09-11T15:44:11.878Z,22.30
2022-09-11T15:47:03.432Z,22.20
2022-09-11T15:49:51.599Z,22.20
2022-09-11T15:52:42.944Z,22.20
2022-09-11T15:55:31.069Z,22.20
2022-09-11T15:58:21.520Z,22.10
2022-09-11T16:01:18.035Z,22.10
2022-09-11T16:04:08.564Z,22.10
2022-09-11T16:06:56.752Z,22.00
2022-09-11T16:09:46.240Z,22.00
2022-09-11T16:12:34.678Z,22.00
2022-09-11T16:15:24.024Z,22.00
2022-09-11T16:18:12.583Z,21.90
2022-09-11T16:21:01.223Z,21.90
2022-09-11T16:23:53.779Z,21.90
2022-09-11T16:26:47.389Z,21.80
2022-09-11T16:30:05.492Z,21.80
2022-09-11T16:32:43.922Z,21.70
2022-09-11T16:35:32.333Z,21.60
2022-09-11T16:38:23.537Z,21.50
2022-09-11T16:41:14.096Z,21.40
2022-09-11T16:44:05.368Z,21.20
2022-09-11T16:46:53.937Z,21.20
2022-09-11T16:52:56.293Z,20.90
2022-09-11T16:55:50.004Z,20.80
2022-09-11T16:58:43.123Z,20.70
2022-09-11T17:01:48.128Z,20.60
2022-09-11T17:04:40.537Z,20.50
2022-09-11T17:07:33.180Z,20.40
2022-09-11T17:10:24.234Z,20.40
2022-09-11T17:13:19.573Z,20.30
2022-09-11T17:16:15.510Z,20.20
2022-09-11T17:19:11.315Z,20.10
2022-09-11T17:22:01.380Z,20.00
2022-09-11T17:24:49.677Z,20.00
2022-09-11T17:27:39.572Z,19.90
2022-09-11T17:30:27.759Z,19.80
2022-09-11T17:33:20.945Z,19.80
2022-09-11T17:36:15.897Z,19.70
2022-09-11T17:39:09.430Z,19.70
2022-09-11T17:42:01.965Z,19.60
2022-09-11T17:44:58.731Z,19.60
2022-09-11T17:47:48.566Z,19.50
2022-09-11T17:50:38.600Z,19.50
2022-09-11T17:53:29.439Z,19.40
2022-09-11T17:56:25.776Z,19.40
2022-09-11T17:59:17.197Z,19.30
2022-09-11T18:02:15.181Z,19.30
2022-09-11T18:05:07.091Z,19.20
2022-09-11T18:08:00.190Z,19.20
2022-09-11T18:10:58.796Z,19.20
2022-09-11T18:13:48.135Z,19.20
2022-09-11T18:16:38.576Z,19.10
2022-09-11T18:19:29.696Z,19.00
2022-09-11T18:22:19.842Z,19.00
2022-09-11T18:25:13.551Z,19.00
2022-09-11T18:28:09.775Z,19.00
2022-09-11T18:31:07.530Z,18.90
2022-09-11T18:33:57.674Z,18.90
2022-09-11T18:36:55.462Z,18.80
2022-09-11T18:39:46.460Z,18.80
2022-09-11T18:42:34.608Z,18.80
2022-09-11T18:45:25.170Z,18.70
2022-09-11T18:48:28.334Z,18.70
2022-09-11T18:51:28.182Z,18.60
2022-09-11T18:54:21.894Z,18.50
2022-09-11T18:57:10.089Z,18.50
2022-09-11T19:00:00.326Z,18.40
2022-09-11T19:02:52.091Z,18.40
2022-09-11T19:05:50.975Z,18.40
2022-09-11T19:08:43.384Z,18.40
2022-09-11T19:11:35.206Z,18.30
2022-09-11T19:14:23.879Z,18.30
2022-09-11T19:17:20.728Z,18.30
2022-09-11T19:20:19.476Z,18.20
2022-09-11T19:23:11.237Z,18.10
2022-09-11T19:26:03.979Z,18.00
2022-09-11T19:28:54.950Z,18.00
2022-09-11T19:31:43.177Z,17.90
2022-09-11T19:34:35.047Z,17.90
2022-09-11T19:37:30.936Z,17.80
2022-09-11T19:40:19.815Z,17.80
2022-09-11T19:43:12.134Z,17.70
2022-09-11T19:46:12.352Z,17.60
2022-09-11T19:49:20.459Z,17.60
2022-09-11T19:52:40.321Z,17.50
2022-09-11T19:55:49.562Z,17.50
2022-09-11T19:58:41.674Z,17.40
2022-09-11T20:01:49.477Z,17.40
2022-09-11T20:04:45.184Z,17.30
2022-09-11T20:07:44.530Z,17.30
2022-09-11T20:10:52.050Z,17.30
2022-09-11T20:13:55.807Z,17.30
2022-09-11T20:17:10.670Z,17.20
2022-09-11T20:20:14.842Z,17.10
2022-09-11T20:23:16.877Z,17.10
2022-09-11T20:26:28.750Z,16.90
2022-09-11T20:29:47.181Z,16.80
2022-09-11T20:33:04.674Z,16.80
2022-09-11T20:36:11.360Z,16.80
2022-09-11T20:39:15.645Z,16.80
2022-09-11T20:42:16.115Z,16.80
2022-09-11T20:45:35.982Z,16.60
2022-09-11T20:48:52.725Z,16.50
2022-09-11T20:52:23.786Z,16.40
2022-09-11T20:55:21.250Z,16.40
2022-09-11T20:58:17.242Z,16.20
2022-09-11T21:01:29.782Z,16.20
2022-09-11T21:04:33.619Z,16.20
2022-09-11T21:07:51.095Z,16.10
2022-09-11T21:10:57.627Z,16.10
2022-09-11T21:13:55.783Z,16.20
2022-09-11T21:17:01.012Z,16.10
2022-09-11T21:23:18.256Z,15.90
2022-09-11T21:26:17.708Z,15.80
2022-09-11T21:29:54.701Z,15.80
2022-09-11T21:33:03.857Z,15.80
2022-09-11T21:36:00.790Z,15.70
2022-09-11T21:42:49.406Z,15.60
2022-09-11T21:46:18.525Z,15.60
2022-09-11T21:49:25.606Z,15.60
2022-09-11T21:52:22.036Z,15.50
2022-09-11T21:55:31.566Z,15.50
2022-09-11T21:58:34.981Z,15.40
2022-09-11T22:01:50.361Z,15.40
2022-09-11T22:04:52.634Z,15.30
2022-09-11T22:07:51.401Z,15.30
2022-09-11T22:10:58.392Z,15.30
2022-09-11T22:14:14.059Z,15.20
2022-09-11T22:17:29.768Z,15.30
2022-09-11T22:20:53.532Z,15.20
2022-09-11T22:24:01.129Z,15.10
2022-09-11T22:27:05.199Z,15.10
2022-09-11T22:30:08.827Z,15.00
2022-09-11T22:33:20.595Z,15.00
2022-09-11T22:36:19.980Z,14.90
2022-09-11T22:39:15.546Z,14.90
2022-09-11T22:42:20.715Z,14.80
2022-09-11T22:46:00.374Z,14.80
2022-09-11T22:49:13.444Z,14.80
2022-09-11T22:52:44.066Z,14.70
2022-09-11T22:55:47.274Z,14.70
2022-09-11T22:58:51.594Z,14.60
2022-09-11T23:02:13.033Z,14.60
2022-09-11T23:05:29.810Z,14.60
2022-09-11T23:08:56.550Z,14.50
2022-09-11T23:12:15.097Z,14.50
2022-09-11T23:15:25.360Z,14.40
2022-09-11T23:18:44.530Z,14.40
2022-09-11T23:21:49.978Z,14.40
2022-09-11T23:24:54.746Z,14.40
2022-09-11T23:31:26.793Z,14.40
2022-09-11T23:34:46.450Z,14.30
2022-09-11T23:37:52.571Z,14.30
2022-09-11T23:40:53.861Z,14.20
2022-09-11T23:44:04.586Z,14.20
2022-09-11T23:47:10.437Z,14.20
2022-09-11T23:50:19.376Z,14.10
2022-09-11T23:53:41.592Z,14.00
2022-09-11T23:57:00.816Z,14.00
